createdAt,value
2024-05-09T00:00:40.065Z,98550.16
2024-05-09T00:03:09.473Z,98555.75
2024-05-09T00:05:38.065Z,98559.72
2024-05-09T00:08:06.660Z,98560.00
2024-05-09T00:10:37.370Z,98562.00
2024-05-09T00:13:07.145Z,98558.03
2024-05-09T00:15:35.320Z,98554.78
2024-05-09T00:18:03.362Z,98553.22
2024-05-09T00:20:37.832Z,98560.31
2024-05-09T00:23:13.562Z,98556.34
2024-05-09T00:25:43.063Z,98548.00
2024-05-09T00:28:11.492Z,98551.28
2024-05-09T00:30:38.382Z,98553.47
2024-05-09T00:33:06.954Z,98553.84
2024-05-09T00:35:35.539Z,98551.66
2024-05-09T00:38:02.656Z,98547.66
2024-05-09T00:40:39.814Z,98545.56
2024-05-09T00:43:12.079Z,98544.28
2024-05-09T00:45:39.787Z,98548.94
2024-05-09T00:48:09.083Z,98541.34
2024-05-09T00:50:41.188Z,98536.41
2024-05-09T00:53:11.704Z,98538.50
2024-05-09T00:55:39.909Z,98535.44
2024-05-09T00:58:10.779Z,98533.75
2024-05-09T01:00:40.489Z,98548.44
2024-05-09T01:03:11.010Z,98543.53
2024-05-09T01:05:40.257Z,98542.16
2024-05-09T01:08:08.255Z,98545.94
2024-05-09T01:10:36.689Z,98542.09
2024-05-09T01:13:04.656Z,98542.34
2024-05-09T01:15:31.939Z,98546.06
2024-05-09T01:18:06.529Z,98544.72
2024-05-09T01:20:41.044Z,98541.69
2024-05-09T01:23:11.858Z,98544.28
2024-05-09T01:25:39.436Z,98547.00
2024-05-09T01:28:06.687Z,98540.47
2024-05-09T01:30:36.228Z,98537.97
2024-05-09T01:33:09.794Z,98538.91
2024-05-09T01:35:40.875Z,98537.53
2024-05-09T01:38:09.769Z,98533.28
2024-05-09T01:40:39.813Z,98541.41
2024-05-09T01:43:09.387Z,98543.56
2024-05-09T01:45:38.440Z,98544.94
2024-05-09T01:48:06.161Z,98540.28
2024-05-09T01:50:38.976Z,98539.63
2024-05-09T01:53:14.287Z,98545.00
2024-05-09T01:55:42.263Z,98545.09
2024-05-09T01:58:09.496Z,98538.25
2024-05-09T02:00:40.645Z,98542.03
2024-05-09T02:03:15.220Z,98539.53
2024-05-09T02:05:46.560Z,98548.22
2024-05-09T02:08:17.970Z,98540.78
2024-05-09T02:10:46.910Z,98549.03
2024-05-09T02:14:20.269Z,98553.72
2024-05-09T02:16:47.792Z,98555.75
2024-05-09T02:19:15.024Z,98556.13
2024-05-09T02:21:42.013Z,98558.13
2024-05-09T02:24:08.932Z,98562.56
2024-05-09T02:26:35.850Z,98566.28
2024-05-09T02:29:02.867Z,98561.19
2024-05-09T02:31:29.737Z,98559.75
2024-05-09T02:33:56.908Z,98555.66
2024-05-09T02:36:23.881Z,98547.16
2024-05-09T02:38:50.734Z,98548.97
2024-05-09T02:41:17.718Z,98551.00
2024-05-09T02:43:44.619Z,98554.50
2024-05-09T02:46:11.523Z,98538.22
2024-05-09T02:48:38.465Z,98540.97
2024-05-09T02:51:05.726Z,98542.06
2024-05-09T02:53:32.805Z,98546.66
2024-05-09T02:55:59.819Z,98555.88
2024-05-09T02:58:26.708Z,98560.72
2024-05-09T03:00:53.579Z,98549.88
2024-05-09T03:03:20.714Z,98554.38
2024-05-09T03:05:47.914Z,98551.78
2024-05-09T03:08:15.072Z,98550.97
2024-05-09T03:10:42.671Z,98551.72
2024-05-09T03:13:14.733Z,98554.22
2024-05-09T03:15:44.426Z,98544.78
2024-05-09T03:18:12.312Z,98555.97
2024-05-09T03:20:39.897Z,98553.56
2024-05-09T03:23:09.167Z,98550.16
2024-05-09T03:25:37.562Z,98549.41
2024-05-09T03:28:04.914Z,98548.75
2024-05-09T03:30:39.873Z,98552.66
2024-05-09T03:33:20.448Z,98549.31
2024-05-09T03:35:48.870Z,98554.75
2024-05-09T03:38:16.837Z,98552.25
2024-05-09T03:40:49.936Z,98552.25
2024-05-09T03:43:18.706Z,98550.63
2024-05-09T03:45:48.690Z,98546.44
2024-05-09T03:48:15.834Z,98543.88
2024-05-09T03:50:43.115Z,98551.50
2024-05-09T03:53:12.811Z,98551.56
2024-05-09T03:55:40.461Z,98550.72
2024-05-09T03:58:08.647Z,98550.88
2024-05-09T04:00:39.177Z,98550.31
2024-05-09T04:03:10.292Z,98553.13
2024-05-09T04:05:41.050Z,98558.47
2024-05-09T04:08:09.771Z,98557.81
2024-05-09T04:10:36.862Z,98555.22
2024-05-09T04:13:04.350Z,98560.47
2024-05-09T04:15:31.885Z,98562.13
2024-05-09T04:17:59.350Z,98564.66
2024-05-09T04:20:37.363Z,98564.47
2024-05-09T04:23:10.547Z,98569.44
2024-05-09T04:25:37.968Z,98569.47
2024-05-09T04:28:05.652Z,98566.00
2024-05-09T04:30:38.548Z,98566.00
2024-05-09T04:33:11.864Z,98563.09
2024-05-09T04:35:44.356Z,98559.41
2024-05-09T04:38:13.265Z,98565.19
2024-05-09T04:40:40.691Z,98570.19
2024-05-09T04:43:15.989Z,98571.53
2024-05-09T04:45:43.075Z,98570.38
2024-05-09T04:48:10.329Z,98574.28
2024-05-09T04:50:39.211Z,98573.94
2024-05-09T04:53:10.031Z,98564.22
2024-05-09T04:55:38.481Z,98577.59
2024-05-09T04:58:09.038Z,98573.69
2024-05-09T05:00:38.752Z,98583.63
2024-05-09T05:03:10.614Z,98580.53
2024-05-09T05:05:40.811Z,98579.19
2024-05-09T05:08:13.193Z,98589.03
2024-05-09T05:10:41.417Z,98585.75
2024-05-09T05:13:22.629Z,98588.56
2024-05-09T05:15:53.208Z,98588.03
2024-05-09T05:18:21.219Z,98588.31
2024-05-09T05:20:48.778Z,98585.13
2024-05-09T05:23:19.333Z,98585.34
2024-05-09T05:25:48.819Z,98577.66
2024-05-09T05:28:17.436Z,98583.88
2024-05-09T05:30:45.423Z,98594.28
2024-05-09T05:33:14.953Z,98587.31
2024-05-09T05:35:42.600Z,98583.19
2024-05-09T05:38:10.988Z,98585.78
2024-05-09T05:40:39.155Z,98580.75
2024-05-09T05:43:09.735Z,98583.53
2024-05-09T05:45:37.041Z,98588.78
2024-05-09T05:48:06.345Z,98592.47
2024-05-09T05:50:36.795Z,98587.44
2024-05-09T05:53:07.750Z,98588.31
2024-05-09T05:55:40.240Z,98584.00
2024-05-09T05:58:11.260Z,98595.38
2024-05-09T06:00:40.346Z,98589.56
2024-05-09T06:03:10.215Z,98593.44
2024-05-09T06:05:40.036Z,98590.88
2024-05-09T06:08:07.787Z,98599.16
2024-05-09T06:10:38.955Z,98605.84
2024-05-09T06:13:12.202Z,98605.88
2024-05-09T06:15:40.765Z,98598.66
2024-05-09T06:18:09.943Z,98598.78
2024-05-09T06:20:39.494Z,98606.47
2024-05-09T06:23:07.684Z,98604.16
2024-05-09T06:25:35.904Z,98599.97
2024-05-09T06:28:03.463Z,98610.38
2024-05-09T06:30:38.376Z,98605.38
2024-05-09T06:33:11.297Z,98612.59
2024-05-09T06:35:40.603Z,98611.81
2024-05-09T06:38:10.768Z,98617.72
2024-05-09T06:40:42.209Z,98597.00
2024-05-09T06:43:16.347Z,98599.66
2024-05-09T06:45:46.772Z,98597.56
2024-05-09T06:48:14.239Z,98601.44
2024-05-09T06:50:41.720Z,98587.34
2024-05-09T06:53:09.202Z,98595.31
2024-05-09T06:55:37.119Z,98593.00
2024-05-09T06:58:08.954Z,98598.97
2024-05-09T07:00:39.766Z,98594.91
2024-05-09T07:03:17.920Z,98603.72
2024-05-09T07:05:47.678Z,98596.56
2024-05-09T07:08:16.380Z,98586.91
2024-05-09T07:10:43.873Z,98590.34
2024-05-09T07:13:12.285Z,98583.16
2024-05-09T07:15:40.723Z,98578.34
2024-05-09T07:18:17.699Z,98575.69
2024-05-09T07:20:46.419Z,98577.31
2024-05-09T07:23:13.774Z,98577.25
2024-05-09T07:25:42.008Z,98582.19
2024-05-09T07:28:21.522Z,98575.66
2024-05-09T07:30:48.580Z,98574.38
2024-05-09T07:33:22.158Z,98565.88
2024-05-09T07:35:50.616Z,98575.47
2024-05-09T07:38:17.671Z,98567.03
2024-05-09T07:40:44.625Z,98562.66
2024-05-09T07:43:12.860Z,98555.38
2024-05-09T07:45:49.389Z,98565.22
2024-05-09T07:52:38.722Z,98567.34
2024-05-09T07:53:49.153Z,98565.88
2024-05-09T07:56:22.194Z,98565.88
2024-05-09T07:58:52.527Z,98567.25
2024-05-09T08:01:20.511Z,98566.56
2024-05-09T08:03:48.190Z,98562.50
2024-05-09T08:06:15.414Z,98569.22
2024-05-09T08:08:42.384Z,98563.78
2024-05-09T08:11:09.406Z,98558.06
2024-05-09T08:13:36.647Z,98554.97
2024-05-09T08:16:04.039Z,98550.56
2024-05-09T08:18:31.192Z,98551.97
2024-05-09T08:20:58.367Z,98543.63
2024-05-09T08:23:25.234Z,98549.00
2024-05-09T08:25:54.926Z,98551.13
2024-05-09T08:28:21.992Z,98549.28
2024-05-09T08:30:49.164Z,98538.75
2024-05-09T08:33:16.307Z,98540.84
2024-05-09T08:35:43.301Z,98555.47
2024-05-09T08:38:10.277Z,98543.16
2024-05-09T08:40:38.281Z,98541.53
2024-05-09T08:43:10.837Z,98539.56
2024-05-09T08:45:44.694Z,98536.19
2024-05-09T08:48:15.409Z,98534.75
2024-05-09T08:50:44.899Z,98535.66
2024-05-09T08:53:14.395Z,98532.22
2024-05-09T08:55:43.432Z,98541.50
2024-05-09T08:58:21.042Z,98540.94
2024-05-09T09:00:49.328Z,98534.13
2024-05-09T09:03:26.469Z,98545.22
2024-05-09T09:06:04.676Z,98540.81
2024-05-09T09:08:31.896Z,98552.47
2024-05-09T09:10:59.433Z,98535.91
2024-05-09T09:13:27.538Z,98541.63
2024-05-09T09:15:58.201Z,98537.69
2024-05-09T09:18:30.086Z,98532.09
2024-05-09T09:20:57.232Z,98525.69
2024-05-09T09:23:25.196Z,98531.00
2024-05-09T09:25:52.068Z,98521.97
2024-05-09T09:28:23.132Z,98528.88
2024-05-09T09:30:50.153Z,98520.19
2024-05-09T09:33:17.846Z,98532.44
2024-05-09T09:35:44.828Z,98532.00
2024-05-09T09:38:18.110Z,98528.97
2024-05-09T09:40:49.710Z,98527.22
2024-05-09T09:43:22.415Z,98515.00
2024-05-09T09:45:52.908Z,98531.09
2024-05-09T09:48:22.383Z,98516.03
2024-05-09T09:50:52.772Z,98522.66
2024-05-09T09:53:20.127Z,98522.66
2024-05-09T09:55:48.221Z,98518.03
2024-05-09T09:58:18.054Z,98513.06
2024-05-09T10:00:45.867Z,98508.59
2024-05-09T10:03:13.228Z,98510.88
2024-05-09T10:05:43.963Z,98513.66
2024-05-09T10:08:15.345Z,98507.72
2024-05-09T10:10:47.600Z,98506.66
2024-05-09T10:13:15.138Z,98511.81
2024-05-09T10:15:47.017Z,98493.31
2024-05-09T10:18:15.108Z,98497.53
2024-05-09T10:20:46.613Z,98499.31
2024-05-09T10:23:45.802Z,98495.66
2024-05-09T10:26:12.753Z,98490.75
2024-05-09T10:28:44.940Z,98483.25
2024-05-09T10:31:14.728Z,98484.47
2024-05-09T10:33:51.350Z,98479.72
2024-05-09T10:36:21.886Z,98472.38
2024-05-09T10:38:50.054Z,98472.22
2024-05-09T10:41:18.516Z,98464.44
2024-05-09T10:43:46.079Z,98463.06
2024-05-09T10:46:14.663Z,98463.94
2024-05-09T10:48:45.075Z,98475.94
2024-05-09T10:51:13.440Z,98473.28
2024-05-09T10:53:45.752Z,98468.66
2024-05-09T10:56:16.788Z,98457.69
2024-05-09T10:58:44.116Z,98454.84
2024-05-09T11:01:11.658Z,98447.34
2024-05-09T11:03:39.986Z,98453.91
2024-05-09T11:06:09.612Z,98448.53
2024-05-09T11:08:37.734Z,98443.84
2024-05-09T11:11:07.600Z,98448.91
2024-05-09T11:13:40.024Z,98442.78
2024-05-09T11:16:21.183Z,98436.19
2024-05-09T11:18:57.477Z,98437.03
2024-05-09T11:21:25.060Z,98436.47
2024-05-09T11:23:52.417Z,98430.72
2024-05-09T11:26:21.439Z,98436.13
2024-05-09T11:28:50.279Z,98425.06
2024-05-09T11:31:17.659Z,98425.28
2024-05-09T11:33:45.684Z,98423.13
2024-05-09T11:36:13.547Z,98416.22
2024-05-09T11:38:41.286Z,98420.72
2024-05-09T11:41:08.283Z,98410.78
2024-05-09T11:43:35.245Z,98412.38
2024-05-09T11:46:03.859Z,98416.69
2024-05-09T11:48:31.700Z,98412.81
2024-05-09T11:50:58.937Z,98415.75
2024-05-09T11:53:25.781Z,98392.50
2024-05-09T11:55:53.153Z,98392.94
2024-05-09T11:58:22.784Z,98408.34
2024-05-09T12:00:50.019Z,98394.41
2024-05-09T12:03:17.218Z,98395.78
2024-05-09T12:05:44.583Z,98394.41
2024-05-09T12:08:12.419Z,98380.66
2024-05-09T12:10:39.494Z,98380.75
2024-05-09T12:13:07.408Z,98366.69
2024-05-09T12:15:38.895Z,98380.78
2024-05-09T12:18:07.941Z,98373.31
2024-05-09T12:20:38.613Z,98375.13
2024-05-09T12:23:09.682Z,98372.00
2024-05-09T12:25:39.175Z,98368.78
2024-05-09T12:28:07.639Z,98368.66
2024-05-09T12:30:38.787Z,98357.38
2024-05-09T12:33:09.994Z,98359.03
2024-05-09T12:35:37.879Z,98356.13
2024-05-09T12:38:05.112Z,98362.44
2024-05-09T12:40:36.751Z,98355.00
2024-05-09T12:43:09.606Z,98344.69
2024-05-09T12:45:38.024Z,98351.28
2024-05-09T12:48:08.275Z,98349.59
2024-05-09T12:50:37.001Z,98342.28
2024-05-09T12:53:05.463Z,98341.91
2024-05-09T12:55:41.138Z,98341.78
2024-05-09T12:58:19.461Z,98335.00
2024-05-09T13:00:47.139Z,98323.44
2024-05-09T13:03:14.664Z,98316.91
2024-05-09T13:05:44.608Z,98328.00
2024-05-09T13:08:13.547Z,98326.00
2024-05-09T13:10:41.096Z,98316.38
2024-05-09T13:13:10.366Z,98316.03
2024-05-09T13:15:37.718Z,98311.41
2024-05-09T13:18:06.194Z,98314.91
2024-05-09T13:20:35.536Z,98307.25
2024-05-09T13:23:08.161Z,98306.44
2024-05-09T13:25:36.940Z,98297.47
2024-05-09T13:28:06.362Z,98298.69
2024-05-09T13:30:39.777Z,98297.72
2024-05-09T13:33:11.026Z,98295.56
2024-05-09T13:35:45.754Z,98302.22
2024-05-09T13:38:17.497Z,98282.69
2024-05-09T13:40:44.679Z,98293.53
2024-05-09T13:43:12.061Z,98291.47
2024-05-09T13:45:40.235Z,98291.44
2024-05-09T13:48:09.558Z,98275.31
2024-05-09T13:50:37.230Z,98279.50
2024-05-09T13:53:06.806Z,98279.69
2024-05-09T13:55:37.616Z,98281.81
2024-05-09T13:58:04.981Z,98273.91
2024-05-09T14:00:42.843Z,98274.91
2024-05-09T14:03:16.017Z,98276.06
2024-05-09T14:05:43.908Z,98270.06
2024-05-09T14:08:11.663Z,98265.94
2024-05-09T14:10:44.459Z,98262.19
2024-05-09T14:13:12.921Z,98262.34
2024-05-09T14:15:40.456Z,98249.84
2024-05-09T14:18:11.172Z,98248.97
2024-05-09T14:20:40.112Z,98251.22
2024-05-09T14:23:06.996Z,98238.84
2024-05-09T14:25:38.658Z,98249.88
2024-05-09T14:28:09.107Z,98260.41
2024-05-09T14:30:38.039Z,98261.34
2024-05-09T14:33:08.202Z,98263.50
2024-05-09T14:35:37.466Z,98267.56
2024-05-09T14:38:06.105Z,98263.22
2024-05-09T14:40:41.056Z,98259.72
2024-05-09T14:43:15.402Z,98254.09
2024-05-09T14:45:44.343Z,98248.25
2024-05-09T14:48:14.779Z,98244.56
2024-05-09T14:50:42.294Z,98255.50
2024-05-09T14:53:13.763Z,98236.09
2024-05-09T14:55:42.764Z,98235.56
2024-05-09T14:58:11.779Z,98237.41
2024-05-09T15:00:46.052Z,98231.84
2024-05-09T15:03:18.225Z,98229.69
2024-05-09T15:05:46.576Z,98228.88
2024-05-09T15:08:13.588Z,98216.41
2024-05-09T15:10:40.691Z,98217.84
2024-05-09T15:13:09.638Z,98213.47
2024-05-09T15:15:38.356Z,98207.38
2024-05-09T15:18:06.273Z,98205.97
2024-05-09T15:20:36.438Z,98205.00
2024-05-09T15:23:06.802Z,98190.84
2024-05-09T15:25:35.958Z,98189.59
2024-05-09T15:28:04.998Z,98198.41
2024-05-09T15:30:33.813Z,98189.00
2024-05-09T15:33:06.327Z,98187.41
2024-05-09T15:35:34.899Z,98186.59
2024-05-09T15:38:03.242Z,98193.38
2024-05-09T15:40:37.813Z,98183.59
2024-05-09T15:43:10.025Z,98178.19
2024-05-09T15:45:39.117Z,98180.94
2024-05-09T15:48:08.060Z,98180.44
2024-05-09T15:50:39.411Z,98182.50
2024-05-09T15:53:10.862Z,98160.84
2024-05-09T15:55:38.673Z,98143.75
2024-05-09T15:58:07.028Z,98143.59
2024-05-09T16:00:39.176Z,98132.84
2024-05-09T16:03:14.065Z,98134.59
2024-05-09T16:05:45.075Z,98123.53
2024-05-09T16:08:13.433Z,98133.66
2024-05-09T16:10:44.496Z,98122.94
2024-05-09T16:13:12.731Z,98130.81
2024-05-09T16:15:39.931Z,98135.91
2024-05-09T16:18:07.388Z,98135.13
2024-05-09T16:20:39.756Z,98146.56
2024-05-09T16:23:09.231Z,98133.13
2024-05-09T16:25:37.057Z,98141.75
2024-05-09T16:28:08.605Z,98136.69
2024-05-09T16:30:40.905Z,98144.94
2024-05-09T16:33:08.803Z,98128.78
2024-05-09T16:35:37.106Z,98131.22
2024-05-09T16:38:04.842Z,98118.03
2024-05-09T16:40:38.650Z,98112.06
2024-05-09T16:43:13.025Z,98119.31
2024-05-09T16:45:43.958Z,98110.25
2024-05-09T16:48:11.567Z,98109.72
2024-05-09T16:50:38.955Z,98103.47
2024-05-09T16:53:10.018Z,98101.47
2024-05-09T16:55:37.099Z,98105.88
2024-05-09T16:58:05.168Z,98095.97
2024-05-09T17:00:40.239Z,98102.78
2024-05-09T17:03:14.276Z,98095.56
2024-05-09T17:05:42.955Z,98091.16
2024-05-09T17:08:10.172Z,98087.56
2024-05-09T17:10:37.434Z,98090.53
2024-05-09T17:13:07.093Z,98093.72
2024-05-09T17:15:36.923Z,98083.72
2024-05-09T17:18:06.335Z,98087.19
2024-05-09T17:20:36.363Z,98088.38
2024-05-09T17:23:12.880Z,98089.72
2024-05-09T17:25:40.786Z,98096.38
2024-05-09T17:28:09.259Z,98089.19
2024-05-09T17:30:38.685Z,98085.56
2024-05-09T17:33:09.794Z,98083.44
2024-05-09T17:35:38.443Z,98087.09
2024-05-09T17:38:06.408Z,98091.66
2024-05-09T17:40:36.586Z,98090.47
2024-05-09T17:43:06.955Z,98079.31
2024-05-09T17:45:37.566Z,98091.00
2024-05-09T17:48:05.083Z,98089.59
2024-05-09T17:50:35.884Z,98097.75
2024-05-09T17:53:06.146Z,98091.97
2024-05-09T17:55:33.742Z,98096.56
2024-05-09T17:58:01.210Z,98103.94
2024-05-09T18:00:36.730Z,98106.38
2024-05-09T18:03:08.172Z,98097.56
2024-05-09T18:05:36.971Z,98103.94
2024-05-09T18:08:06.269Z,98112.09
2024-05-09T18:10:37.306Z,98109.69
2024-05-09T18:13:08.129Z,98102.59
2024-05-09T18:15:35.482Z,98101.47
2024-05-09T18:18:03.370Z,98106.75
2024-05-09T18:20:39.931Z,98103.31
2024-05-09T18:23:12.993Z,98106.56
2024-05-09T18:25:40.001Z,98123.72
2024-05-09T18:28:07.970Z,98124.34
2024-05-09T18:30:36.830Z,98116.38
2024-05-09T18:33:07.024Z,98118.81
2024-05-09T18:35:35.860Z,98114.31
2024-05-09T18:38:03.816Z,98117.69
2024-05-09T18:40:34.826Z,98117.75
2024-05-09T18:43:07.121Z,98114.38
2024-05-09T18:45:37.702Z,98127.31
2024-05-09T18:48:06.697Z,98123.59
2024-05-09T18:50:38.574Z,98126.91
2024-05-09T18:53:10.176Z,98130.22
2024-05-09T18:55:37.680Z,98125.50
2024-05-09T18:58:05.390Z,98141.97
2024-05-09T19:00:36.429Z,98141.00
2024-05-09T19:03:11.572Z,98142.41
2024-05-09T19:05:41.805Z,98148.56
2024-05-09T19:08:09.815Z,98147.53
2024-05-09T19:10:39.052Z,98147.84
2024-05-09T19:13:10.932Z,98151.50
2024-05-09T19:15:40.761Z,98151.81
2024-05-09T19:18:09.339Z,98160.00
2024-05-09T19:20:37.259Z,98161.84
2024-05-09T19:23:06.459Z,98161.19
2024-05-09T19:25:34.550Z,98164.22
2024-05-09T19:28:01.752Z,98177.63
2024-05-09T19:30:37.248Z,98182.19
2024-05-09T19:33:09.218Z,98178.03
2024-05-09T19:35:36.983Z,98183.13
2024-05-09T19:38:04.897Z,98188.50
2024-05-09T19:40:33.799Z,98182.56
2024-05-09T19:43:03.025Z,98184.22
2024-05-09T19:45:32.130Z,98189.28
2024-05-09T19:47:59.234Z,98187.34
2024-05-09T19:50:32.735Z,98188.13
2024-05-09T19:53:08.514Z,98183.81
2024-05-09T19:55:35.488Z,98183.53
2024-05-09T19:58:05.038Z,98192.59
2024-05-09T20:00:40.289Z,98187.22
2024-05-09T20:03:10.739Z,98184.28
2024-05-09T20:05:38.745Z,98202.53
2024-05-09T20:08:06.790Z,98210.63
2024-05-09T20:10:35.692Z,98205.22
2024-05-09T20:13:08.058Z,98203.22
2024-05-09T20:15:36.447Z,98204.41
2024-05-09T20:18:04.481Z,98197.44
2024-05-09T20:20:38.075Z,98204.50
2024-05-09T20:23:09.766Z,98208.44
2024-05-09T20:25:37.177Z,98211.31
2024-05-09T20:28:06.027Z,98213.47
2024-05-09T20:30:35.590Z,98212.06
2024-05-09T20:33:05.011Z,98204.59
2024-05-09T20:35:33.488Z,98206.06
2024-05-09T20:38:01.635Z,98207.41
2024-05-09T20:40:33.854Z,98205.13
2024-05-09T20:43:05.447Z,98203.88
2024-05-09T20:45:32.811Z,98200.81
2024-05-09T20:48:00.187Z,98203.50
2024-05-09T20:50:36.187Z,98175.16
2024-05-09T20:53:10.367Z,98204.97
2024-05-09T20:55:37.334Z,98200.34
2024-05-09T20:58:04.589Z,98206.09
2024-05-09T21:00:39.507Z,98201.59
2024-05-09T21:03:10.286Z,98209.09
2024-05-09T21:05:37.568Z,98198.41
2024-05-09T21:08:04.975Z,98196.41
2024-05-09T21:10:33.562Z,98196.31
2024-05-09T21:13:03.330Z,98198.44
2024-05-09T21:15:31.599Z,98196.78
2024-05-09T21:17:58.983Z,98199.63
2024-05-09T21:20:31.246Z,98204.38
2024-05-09T21:23:00.946Z,98199.38
2024-05-09T21:25:28.046Z,98199.41
2024-05-09T21:27:55.130Z,98204.13
2024-05-09T21:30:31.951Z,98201.63
2024-05-09T21:33:09.541Z,98206.25
2024-05-09T21:35:37.821Z,98205.88
2024-05-09T21:38:05.015Z,98218.47
2024-05-09T21:40:35.121Z,98207.66
2024-05-09T21:43:04.809Z,98203.75
2024-05-09T21:45:32.322Z,98215.25
2024-05-09T21:47:59.847Z,98204.19
2024-05-09T21:50:35.490Z,98211.56
2024-05-09T21:53:06.796Z,98224.13
2024-05-09T21:55:33.881Z,98213.53
2024-05-09T21:58:01.001Z,98216.38
2024-05-09T22:00:35.461Z,98213.16
2024-05-09T22:03:07.731Z,98216.13
2024-05-09T22:05:35.772Z,98213.22
2024-05-09T22:08:03.547Z,98211.56
2024-05-09T22:10:34.794Z,98214.19
2024-05-09T22:13:05.291Z,98203.88
2024-05-09T22:15:39.062Z,98212.03
2024-05-09T22:18:10.656Z,98213.94
2024-05-09T22:20:44.655Z,98206.44
2024-05-09T22:23:13.620Z,98210.56
2024-05-09T22:25:40.649Z,98204.13
2024-05-09T22:28:07.980Z,98210.28
2024-05-09T22:30:38.466Z,98209.59
2024-05-09T22:33:09.382Z,98216.78
2024-05-09T22:35:37.859Z,98210.00
2024-05-09T22:38:05.305Z,98217.09
2024-05-09T22:40:42.017Z,98221.81
2024-05-09T22:43:21.477Z,98217.25
2024-05-09T22:45:50.668Z,98219.59
2024-05-09T22:48:18.419Z,98221.44
2024-05-09T22:50:45.464Z,98219.91
2024-05-09T22:53:12.469Z,98222.00
2024-05-09T22:55:39.343Z,98221.59
2024-05-09T22:58:06.402Z,98215.91
2024-05-09T23:00:33.710Z,98219.56
2024-05-09T23:03:01.670Z,98215.50
2024-05-09T23:05:29.460Z,98218.44
2024-05-09T23:07:56.721Z,98213.56
2024-05-09T23:10:31.732Z,98212.94
2024-05-09T23:13:03.115Z,98214.91
2024-05-09T23:15:30.332Z,98213.97
2024-05-09T23:17:58.129Z,98207.22
2024-05-09T23:20:33.944Z,98216.19
2024-05-09T23:23:10.349Z,98217.44
2024-05-09T23:25:38.767Z,98209.84
2024-05-09T23:28:06.411Z,98201.44
2024-05-09T23:30:38.424Z,98211.22
2024-05-09T23:33:11.959Z,98205.38
2024-05-09T23:35:41.575Z,98205.81
2024-05-09T23:38:08.464Z,98196.66
2024-05-09T23:40:39.522Z,98201.38
2024-05-09T23:43:10.044Z,98191.28
2024-05-09T23:45:37.418Z,98194.06
2024-05-09T23:48:05.887Z,98195.00
2024-05-09T23:50:36.572Z,98202.91
2024-05-09T23:53:07.762Z,98190.25
2024-05-09T23:55:35.797Z,98187.13
2024-05-09T23:58:02.889Z,98185.66
